Time;durP1;ratioP1;P1;durP2;ratioP2;P2;SDS_P1;SDS_P2;PMS_P1;PMS_P2;Temp;Humidity;BMP_temperature;BMP_pressure;BME280_temperature;BME280_humidity;BME280_pressure;Samples;Min_cycle;Max_cycle;Signal;HPM_P1;HPM_P2
2022/09/06 00:01:46;;;;;;;6.63;4.28;;;;;;;;;;5052599;28;20040;-78
2022/09/06 00:04:12;;;;;;;10.48;4.20;;;;;;;;;;5051564;28;20508;-78
2022/09/06 00:06:38;;;;;;;5.72;4.32;;;;;;;;;;5051359;28;20044;-78
2022/09/06 00:09:04;;;;;;;12.40;4.53;;;;;;;;;;5051357;28;20457;-78
2022/09/06 00:11:30;;;;;;;8.60;4.28;;;;;;;;;;5051383;28;20033;-78
2022/09/06 00:13:56;;;;;;;6.95;4.78;;;;;;;;;;5051285;28;20429;-78
2022/09/06 00:16:23;;;;;;;8.23;5.20;;;;;;;;;;5051326;28;20068;-78
2022/09/06 00:18:53;;;;;;;5.43;4.68;;;;;;;;;;5051401;28;20501;-78
2022/09/06 00:21:23;;;;;;;8.82;4.78;;;;;;;;;;5051030;28;20127;-78
2022/09/06 00:23:50;;;;;;;5.78;4.18;;;;;;;;;;5034463;28;20048;-78
2022/09/06 00:26:16;;;;;;;9.02;4.50;;;;;;;;;;5051088;28;20036;-78
2022/09/06 00:28:42;;;;;;;7.65;4.60;;;;;;;;;;5034097;28;20509;-78
2022/09/06 00:31:12;;;;;;;9.05;4.57;;;;;;;;;;5050944;28;20033;-78
2022/09/06 00:33:39;;;;;;;7.65;4.80;;;;;;;;;;5051048;28;20055;-78
2022/09/06 00:36:05;;;;;;;6.68;4.78;;;;;;;;;;5051198;28;20052;-78
2022/09/06 00:38:31;;;;;;;10.60;5.10;;;;;;;;;;5051702;28;20056;-78
2022/09/06 00:40:57;;;;;;;8.40;4.93;;;;;;;;;;5051047;28;20056;-78
2022/09/06 00:43:23;;;;;;;6.75;4.65;;;;;;;;;;5051249;28;20537;-78
2022/09/06 00:45:50;;;;;;;8.52;4.53;;;;;;;;;;5050583;28;20137;-78
2022/09/06 00:48:16;;;;;;;8.20;5.25;;;;;;;;;;5050643;28;20045;-78
2022/09/06 00:50:43;;;;;;;7.22;5.22;;;;;;;;;;5050403;28;20103;-78
2022/09/06 00:53:09;;;;;;;8.57;4.82;;;;;;;;;;5050855;28;20044;-78
2022/09/06 00:55:35;;;;;;;6.70;5.15;;;;;;;;;;5033317;28;20048;-78
2022/09/06 00:58:02;;;;;;;8.00;4.90;;;;;;;;;;5050387;28;20116;-78
2022/09/06 01:00:28;;;;;;;6.72;4.88;;;;;;;;;;5050726;28;20041;-78
2022/09/06 01:02:54;;;;;;;12.45;5.10;;;;;;;;;;5036280;28;20037;-78
2022/09/06 01:05:22;;;;;;;9.05;5.13;;;;;;;;;;5051164;28;20037;-78
2022/09/06 01:07:58;;;;;;;8.20;4.78;;;;;;;;;;5054367;28;20041;-78
2022/09/06 01:10:43;;;;;;;7.78;4.53;;;;;;;;;;5054982;28;20409;-78
2022/09/06 01:13:20;;;;;;;8.15;4.57;;;;;;;;;;5037969;28;20033;-78
2022/09/06 01:15:56;;;;;;;6.50;4.88;;;;;;;;;;5053956;28;20044;-78
2022/09/06 01:18:22;;;;;;;7.20;4.30;;;;;;;;;;5053595;28;20041;-78
2022/09/06 01:20:56;;;;;;;6.15;4.68;;;;;;;;;;5054056;28;20489;-78
2022/09/06 01:23:22;;;;;;;8.93;5.18;;;;;;;;;;5054520;28;20047;-78
2022/09/06 01:25:51;;;;;;;12.82;5.20;;;;;;;;;;5053647;28;20044;-78
2022/09/06 01:28:27;;;;;;;11.85;5.07;;;;;;;;;;5054071;28;20045;-78
2022/09/06 01:31:07;;;;;;;5.88;5.10;;;;;;;;;;5053644;28;20108;-78
2022/09/06 01:33:50;;;;;;;10.35;5.53;;;;;;;;;;5054398;28;20490;-78
2022/09/06 01:36:22;;;;;;;10.00;5.07;;;;;;;;;;5054035;28;20033;-78
2022/09/06 01:38:49;;;;;;;9.15;5.45;;;;;;;;;;5040315;28;20047;-78
2022/09/06 01:41:15;;;;;;;10.90;6.32;;;;;;;;;;5053926;28;20048;-78
2022/09/06 01:43:42;;;;;;;13.15;6.43;;;;;;;;;;5053714;28;20505;-78
2022/09/06 01:46:24;;;;;;;7.65;5.90;;;;;;;;;;5054097;28;20505;-78
2022/09/06 01:48:53;;;;;;;9.98;6.45;;;;;;;;;;5053191;28;20037;-78
2022/09/06 01:51:22;;;;;;;11.70;7.32;;;;;;;;;;5054007;28;20442;-78
2022/09/06 01:53:56;;;;;;;14.13;7.53;;;;;;;;;;5036452;28;20032;-78
2022/09/06 01:56:32;;;;;;;7.78;6.65;;;;;;;;;;5053796;28;20084;-78
2022/09/06 01:59:26;;;;;;;11.90;7.63;;;;;;;;;;5053406;28;20072;-78
2022/09/06 02:02:18;;;;;;;13.10;9.57;;;;;;;;;;5052989;28;20051;-78
2022/09/06 02:04:46;;;;;;;14.45;10.00;;;;;;;;;;5042296;28;20134;-78
2022/09/06 02:07:16;;;;;;;11.93;9.30;;;;;;;;;;5036449;28;20041;-78
2022/09/06 02:09:43;;;;;;;12.73;9.27;;;;;;;;;;5052898;28;20045;-78
2022/09/06 02:12:12;;;;;;;10.52;8.20;;;;;;;;;;5053572;28;20489;-78
2022/09/06 02:14:46;;;;;;;12.73;9.65;;;;;;;;;;5053371;28;20045;-79
2022/09/06 02:17:15;;;;;;;9.77;8.77;;;;;;;;;;5036125;28;20036;-78
2022/09/06 02:19:46;;;;;;;11.15;6.30;;;;;;;;;;5054669;28;20536;-78
2022/09/06 02:22:14;;;;;;;10.90;8.18;;;;;;;;;;5053134;28;20045;-78
2022/09/06 02:24:41;;;;;;;12.68;8.57;;;;;;;;;;5052908;28;20033;-78
2022/09/06 02:27:08;;;;;;;12.63;7.88;;;;;;;;;;5053021;28;20047;-78
2022/09/06 02:29:34;;;;;;;14.60;7.43;;;;;;;;;;5052776;28;20091;-79
2022/09/06 02:32:10;;;;;;;12.45;8.32;;;;;;;;;;5052554;28;20077;-78
2022/09/06 02:34:40;;;;;;;11.82;8.25;;;;;;;;;;5054215;28;20076;-78
2022/09/06 02:37:06;;;;;;;15.43;8.57;;;;;;;;;;5052886;28;20119;-78
2022/09/06 02:39:33;;;;;;;10.90;8.18;;;;;;;;;;5052877;28;20049;-78
2022/09/06 02:41:59;;;;;;;12.90;7.40;;;;;;;;;;5052390;28;20485;-78
2022/09/06 02:44:25;;;;;;;9.48;6.50;;;;;;;;;;5052966;28;20041;-78
2022/09/06 02:46:51;;;;;;;8.75;6.85;;;;;;;;;;5052072;28;20044;-78
2022/09/06 02:49:17;;;;;;;10.20;7.10;;;;;;;;;;5052615;28;20045;-78
2022/09/06 02:51:43;;;;;;;9.93;6.90;;;;;;;;;;5052487;28;20059;-78
2022/09/06 02:54:10;;;;;;;12.93;7.03;;;;;;;;;;5051950;28;20033;-78
2022/09/06 02:56:36;;;;;;;9.38;6.88;;;;;;;;;;5052721;28;20404;-78
2022/09/06 02:59:04;;;;;;;10.70;6.80;;;;;;;;;;5052635;28;20044;-78
2022/09/06 03:01:30;;;;;;;9.00;6.90;;;;;;;;;;5035904;28;20052;-78
2022/09/06 03:03:56;;;;;;;11.15;6.70;;;;;;;;;;5051872;28;20041;-78
2022/09/06 03:06:23;;;;;;;8.23;6.75;;;;;;;;;;5035751;28;20045;-78
2022/09/06 03:08:49;;;;;;;13.68;7.20;;;;;;;;;;5051892;28;20071;-78
2022/09/06 03:11:15;;;;;;;7.78;6.45;;;;;;;;;;5052390;28;20048;-78
2022/09/06 03:13:41;;;;;;;10.13;6.97;;;;;;;;;;5052169;28;20098;-78
2022/09/06 03:16:07;;;;;;;7.65;6.65;;;;;;;;;;5051710;28;20116;-78
2022/09/06 03:18:34;;;;;;;10.15;6.70;;;;;;;;;;5035295;28;20055;-78
2022/09/06 03:21:00;;;;;;;10.23;6.70;;;;;;;;;;5051940;28;20372;-78
2022/09/06 03:23:27;;;;;;;8.55;6.30;;;;;;;;;;5052092;28;20179;-78
2022/09/06 03:25:53;;;;;;;9.63;6.45;;;;;;;;;;5051310;28;20072;-78
2022/09/06 03:28:20;;;;;;;10.30;6.28;;;;;;;;;;5051296;28;20604;-78
2022/09/06 03:30:46;;;;;;;8.75;6.40;;;;;;;;;;5035347;28;20040;-78
2022/09/06 03:33:12;;;;;;;9.02;6.20;;;;;;;;;;5051106;28;20075;-78
2022/09/06 03:35:39;;;;;;;11.35;6.68;;;;;;;;;;5051764;28;20044;-78
2022/09/06 03:38:05;;;;;;;8.50;6.07;;;;;;;;;;5051658;28;20502;-78
2022/09/06 03:40:31;;;;;;;11.38;6.50;;;;;;;;;;5019083;28;20056;-79
2022/09/06 03:42:57;;;;;;;8.48;6.38;;;;;;;;;;5051336;28;20036;-78
2022/09/06 03:45:23;;;;;;;9.73;6.43;;;;;;;;;;5051649;28;20044;-78
2022/09/06 03:47:49;;;;;;;11.18;6.97;;;;;;;;;;5035024;28;20033;-78
2022/09/06 03:50:15;;;;;;;11.07;6.60;;;;;;;;;;5050991;28;20041;-78
2022/09/06 03:52:41;;;;;;;7.90;6.63;;;;;;;;;;5051470;28;20048;-78
2022/09/06 03:55:07;;;;;;;7.80;6.97;;;;;;;;;;5034282;28;20048;-78
2022/09/06 03:57:34;;;;;;;10.88;7.43;;;;;;;;;;5051660;28;20049;-78
2022/09/06 04:00:00;;;;;;;8.50;7.10;;;;;;;;;;5051138;28;20045;-78
2022/09/06 04:02:26;;;;;;;9.88;6.97;;;;;;;;;;5051023;28;20037;-78
2022/09/06 04:04:54;;;;;;;8.70;7.35;;;;;;;;;;5051127;28;20132;-78
2022/09/06 04:07:21;;;;;;;9.18;7.50;;;;;;;;;;5050869;28;20037;-78
2022/09/06 04:09:47;;;;;;;11.48;7.53;;;;;;;;;;5051260;28;20076;-78
2022/09/06 04:12:13;;;;;;;9.88;7.60;;;;;;;;;;5050990;28;20477;-78
2022/09/06 04:14:39;;;;;;;10.85;8.05;;;;;;;;;;5051179;28;20047;-78
2022/09/06 04:17:05;;;;;;;12.20;8.00;;;;;;;;;;5050429;28;20037;-78
2022/09/06 04:19:32;;;;;;;10.25;8.05;;;;;;;;;;5034365;28;20183;-78
2022/09/06 04:21:58;;;;;;;10.10;8.13;;;;;;;;;;5050797;28;20095;-78
2022/09/06 04:24:24;;;;;;;12.57;8.10;;;;;;;;;;5050964;28;20048;-78
2022/09/06 04:26:50;;;;;;;12.65;8.40;;;;;;;;;;5051212;28;20434;-78
2022/09/06 04:29:16;;;;;;;11.88;7.70;;;;;;;;;;5050485;28;20489;-78
2022/09/06 04:31:42;;;;;;;10.30;8.77;;;;;;;;;;5051161;28;20498;-78
2022/09/06 04:34:08;;;;;;;10.07;8.50;;;;;;;;;;5050775;28;20389;-78
2022/09/06 04:36:35;;;;;;;9.75;8.70;;;;;;;;;;5050918;28;20555;-78
2022/09/06 04:39:01;;;;;;;11.82;9.18;;;;;;;;;;5033878;28;20045;-78
2022/09/06 04:41:27;;;;;;;10.40;8.98;;;;;;;;;;5050714;28;20080;-78
2022/09/06 04:43:53;;;;;;;12.45;8.57;;;;;;;;;;5050859;28;20049;-78
2022/09/06 04:46:24;;;;;;;11.82;9.15;;;;;;;;;;5050220;28;20212;-78
2022/09/06 04:48:51;;;;;;;11.98;9.48;;;;;;;;;;5050787;28;20048;-78
2022/09/06 04:51:17;;;;;;;13.43;9.80;;;;;;;;;;5050533;28;20041;-78
2022/09/06 04:53:44;;;;;;;11.25;9.38;;;;;;;;;;5050603;28;20063;-78
2022/09/06 04:56:14;;;;;;;10.70;9.60;;;;;;;;;;5033464;28;20053;-78
2022/09/06 04:58:41;;;;;;;11.90;9.85;;;;;;;;;;5050559;28;20047;-77
2022/09/06 05:01:07;;;;;;;14.85;10.68;;;;;;;;;;5051677;28;20041;-78
2022/09/06 05:03:33;;;;;;;13.38;10.55;;;;;;;;;;5050488;28;20052;-78
2022/09/06 05:06:10;;;;;;;12.90;10.15;;;;;;;;;;5050925;28;20098;-78
2022/09/06 05:08:37;;;;;;;14.70;9.05;;;;;;;;;;5050533;28;20049;-78
2022/09/06 05:11:03;;;;;;;11.43;10.25;;;;;;;;;;5050170;28;20037;-78
2022/09/06 05:13:29;;;;;;;12.43;10.43;;;;;;;;;;5050732;28;20051;-77
2022/09/06 05:15:55;;;;;;;11.43;10.23;;;;;;;;;;5033960;28;20131;-78
2022/09/06 05:18:21;;;;;;;13.20;10.43;;;;;;;;;;5050445;28;20521;-78
2022/09/06 05:20:51;;;;;;;11.50;8.90;;;;;;;;;;5050658;28;20045;-78
2022/09/06 05:23:17;;;;;;;13.10;9.38;;;;;;;;;;5049995;28;20044;-78
2022/09/06 05:25:43;;;;;;;12.60;9.50;;;;;;;;;;5033935;28;20049;-77
2022/09/06 05:28:09;;;;;;;12.93;10.60;;;;;;;;;;5033245;28;20072;-77
2022/09/06 05:30:35;;;;;;;17.33;10.30;;;;;;;;;;5050427;28;20041;-78
2022/09/06 05:33:01;;;;;;;14.02;10.52;;;;;;;;;;5050130;28;20041;-78
2022/09/06 05:35:27;;;;;;;11.55;10.32;;;;;;;;;;5049938;28;20150;-78
2022/09/06 05:37:53;;;;;;;12.52;9.93;;;;;;;;;;5050082;28;20041;-78
2022/09/06 05:40:19;;;;;;;12.05;9.68;;;;;;;;;;5049904;28;20122;-78
2022/09/06 05:42:45;;;;;;;12.38;10.77;;;;;;;;;;5050233;28;20080;-78
2022/09/06 05:45:12;;;;;;;11.93;10.50;;;;;;;;;;5033393;28;20072;-78
2022/09/06 05:47:38;;;;;;;14.27;10.88;;;;;;;;;;5051541;28;20041;-78
2022/09/06 05:50:05;;;;;;;12.35;10.98;;;;;;;;;;5049942;28;20071;-78
2022/09/06 05:52:33;;;;;;;12.98;10.57;;;;;;;;;;5051987;28;20123;-78
2022/09/06 05:55:00;;;;;;;12.10;9.88;;;;;;;;;;5053604;28;20099;-78
2022/09/06 05:57:26;;;;;;;13.70;10.63;;;;;;;;;;5053545;28;20557;-78
2022/09/06 05:59:52;;;;;;;13.93;10.98;;;;;;;;;;5053738;28;20432;-78
2022/09/06 06:02:22;;;;;;;13.75;11.68;;;;;;;;;;5053444;28;20040;-78
2022/09/06 06:04:48;;;;;;;11.73;10.50;;;;;;;;;;5053389;28;20037;-78
2022/09/06 06:07:15;;;;;;;12.93;10.85;;;;;;;;;;5036705;28;20044;-78
2022/09/06 06:09:41;;;;;;;11.80;10.60;;;;;;;;;;5053199;28;20157;-78
2022/09/06 06:12:07;;;;;;;14.23;10.88;;;;;;;;;;5053920;28;20041;-78
2022/09/06 06:14:33;;;;;;;14.73;11.05;;;;;;;;;;5053051;28;20041;-78
2022/09/06 06:17:01;;;;;;;12.38;10.82;;;;;;;;;;5054560;28;20120;-78
2022/09/06 06:19:27;;;;;;;12.82;10.80;;;;;;;;;;5054140;28;20468;-78
2022/09/06 06:21:54;;;;;;;12.75;11.23;;;;;;;;;;5054545;28;20493;-78
2022/09/06 06:24:21;;;;;;;11.90;10.63;;;;;;;;;;5052700;28;20213;-78
2022/09/06 06:26:47;;;;;;;12.55;11.25;;;;;;;;;;5053168;28;20106;-78
2022/09/06 06:29:13;;;;;;;14.07;11.80;;;;;;;;;;5049571;28;20132;-78
2022/09/06 06:31:39;;;;;;;12.77;11.43;;;;;;;;;;5053354;28;20099;-78
2022/09/06 06:34:06;;;;;;;13.18;11.80;;;;;;;;;;5036363;28;20040;-78
2022/09/06 06:36:33;;;;;;;13.10;11.80;;;;;;;;;;5035782;28;20214;-78
2022/09/06 06:38:59;;;;;;;16.40;11.55;;;;;;;;;;5053071;28;20053;-78
2022/09/06 06:41:26;;;;;;;15.27;12.00;;;;;;;;;;5052669;28;20512;-78
2022/09/06 06:43:53;;;;;;;16.48;12.07;;;;;;;;;;5052763;28;20056;-78
2022/09/06 06:46:19;;;;;;;13.75;11.98;;;;;;;;;;5052562;28;20543;-78
2022/09/06 06:48:45;;;;;;;16.52;12.00;;;;;;;;;;5052860;28;20045;-78
2022/09/06 06:51:13;;;;;;;14.35;12.43;;;;;;;;;;5052537;28;20040;-78
2022/09/06 06:53:39;;;;;;;13.82;12.38;;;;;;;;;;5052742;28;20048;-78
2022/09/06 06:56:15;;;;;;;14.32;12.82;;;;;;;;;;5052715;28;20079;-78
2022/09/06 06:58:41;;;;;;;;;;;;;;;;;;5036349;28;20079;-78
2022/09/06 07:01:08;;;;;;;15.13;13.52;;;;;;;;;;5052920;28;19916;-78
2022/09/06 07:03:35;;;;;;;16.83;11.88;;;;;;;;;;5051225;28;20041;-79
2022/09/06 07:06:01;;;;;;;20.90;12.90;;;;;;;;;;5036057;28;20124;-78
2022/09/06 07:08:27;;;;;;;14.15;12.32;;;;;;;;;;5052307;28;20103;-78
2022/09/06 07:10:53;;;;;;;13.27;11.60;;;;;;;;;;5052343;28;20041;-79
2022/09/06 07:13:19;;;;;;;14.15;10.77;;;;;;;;;;5052279;28;20076;-79
2022/09/06 07:15:45;;;;;;;11.05;9.68;;;;;;;;;;5035807;28;20040;-79
2022/09/06 07:18:14;;;;;;;14.32;11.48;;;;;;;;;;5052222;28;20049;-79
2022/09/06 07:20:40;;;;;;;14.43;10.35;;;;;;;;;;5051607;28;20029;-79
2022/09/06 07:23:06;;;;;;;12.35;10.63;;;;;;;;;;5053239;28;20037;-79
2022/09/06 07:25:33;;;;;;;13.30;9.93;;;;;;;;;;5051657;28;20094;-80
2022/09/06 07:28:00;;;;;;;13.35;9.82;;;;;;;;;;5051924;28;20520;-80
2022/09/06 07:30:27;;;;;;;11.82;10.57;;;;;;;;;;5051350;28;20091;-79
2022/09/06 07:32:54;;;;;;;13.15;9.43;;;;;;;;;;5051741;28;20043;-79
2022/09/06 07:35:20;;;;;;;11.75;10.30;;;;;;;;;;5018640;28;20449;-79
2022/09/06 07:37:56;;;;;;;12.48;10.10;;;;;;;;;;5051762;28;20489;-79
2022/09/06 07:40:23;;;;;;;15.10;10.30;;;;;;;;;;5051313;28;20064;-79
2022/09/06 07:42:49;;;;;;;14.90;10.45;;;;;;;;;;5052911;28;20045;-79
2022/09/06 07:45:15;;;;;;;13.60;11.13;;;;;;;;;;5051508;28;20434;-79
2022/09/06 07:47:41;;;;;;;13.23;10.00;;;;;;;;;;5050791;28;20076;-79
2022/09/06 07:50:08;;;;;;;12.20;10.55;;;;;;;;;;5050806;28;20126;-79
2022/09/06 07:52:34;;;;;;;12.07;10.63;;;;;;;;;;5050899;28;20124;-79
2022/09/06 07:55:00;;;;;;;17.52;10.40;;;;;;;;;;5034713;28;20053;-79
2022/09/06 07:57:26;;;;;;;11.20;9.60;;;;;;;;;;5051100;28;20056;-79
2022/09/06 07:59:52;;;;;;;11.38;9.43;;;;;;;;;;5035084;28;20073;-79
2022/09/06 08:02:18;;;;;;;12.35;9.73;;;;;;;;;;5051353;28;20041;-79
2022/09/06 08:04:44;;;;;;;13.05;9.88;;;;;;;;;;5051311;28;20511;-79
2022/09/06 08:07:10;;;;;;;11.35;9.60;;;;;;;;;;5051116;28;20068;-79
2022/09/06 08:09:36;;;;;;;12.77;10.13;;;;;;;;;;5050671;28;20095;-79
2022/09/06 08:12:06;;;;;;;16.52;9.25;;;;;;;;;;5051097;28;20111;-79
2022/09/06 08:14:35;;;;;;;11.73;9.57;;;;;;;;;;5050414;28;20073;-79
2022/09/06 08:17:01;;;;;;;11.60;9.40;;;;;;;;;;5051145;28;20076;-79
2022/09/06 08:19:27;;;;;;;11.35;9.82;;;;;;;;;;5034346;28;20481;-79
2022/09/06 08:21:54;;;;;;;12.45;10.20;;;;;;;;;;5051061;28;20049;-79
2022/09/06 08:24:20;;;;;;;10.50;9.40;;;;;;;;;;5051023;28;20076;-79
2022/09/06 08:26:47;;;;;;;12.00;9.80;;;;;;;;;;5050688;28;20041;-80
2022/09/06 08:29:13;;;;;;;10.20;9.07;;;;;;;;;;5050641;28;20079;-80
2022/09/06 08:31:43;;;;;;;11.43;9.18;;;;;;;;;;5050493;28;20044;-79
2022/09/06 08:34:11;;;;;;;14.38;9.55;;;;;;;;;;5050832;28;20037;-79
2022/09/06 08:36:37;;;;;;;13.95;8.80;;;;;;;;;;5050458;28;20037;-79
2022/09/06 08:39:05;;;;;;;10.45;9.10;;;;;;;;;;5050800;28;20124;-80
2022/09/06 08:41:45;;;;;;;10.48;9.40;;;;;;;;;;5050325;28;20063;-80
2022/09/06 08:44:13;;;;;;;11.88;8.90;;;;;;;;;;5051482;28;20370;-80
2022/09/06 08:46:41;;;;;;;9.88;8.48;;;;;;;;;;5050391;28;20066;-80
2022/09/06 08:49:08;;;;;;;12.50;8.50;;;;;;;;;;5034333;28;20505;-80
2022/09/06 08:51:47;;;;;;;8.27;7.43;;;;;;;;;;5051679;28;20094;-80
2022/09/06 08:54:33;;;;;;;9.50;7.45;;;;;;;;;;5050515;28;20037;-80
2022/09/06 08:57:02;;;;;;;8.98;7.18;;;;;;;;;;5050565;28;20041;-81
2022/09/06 08:59:30;;;;;;;10.90;6.85;;;;;;;;;;5050515;28;20131;-80
2022/09/06 09:02:16;;;;;;;10.07;6.85;;;;;;;;;;5034260;28;20451;-80
2022/09/06 09:04:44;;;;;;;9.15;6.68;;;;;;;;;;5050154;28;20179;-81
2022/09/06 09:07:28;;;;;;;7.88;6.25;;;;;;;;;;5034178;28;20036;-81
2022/09/06 09:09:55;;;;;;;8.20;6.40;;;;;;;;;;5050532;28;20455;-81
2022/09/06 09:12:22;;;;;;;9.05;6.40;;;;;;;;;;5050446;28;20040;-80
2022/09/06 09:14:52;;;;;;;10.70;6.18;;;;;;;;;;5033902;28;20489;-81
2022/09/06 09:17:23;;;;;;;6.60;6.00;;;;;;;;;;5050486;28;20052;-81
2022/09/06 09:19:49;;;;;;;10.25;5.60;;;;;;;;;;5050344;28;20127;-81
2022/09/06 09:22:17;;;;;;;9.00;5.65;;;;;;;;;;5033991;28;20059;-81
2022/09/06 09:24:44;;;;;;;7.28;5.78;;;;;;;;;;5049847;28;20052;-81
2022/09/06 09:27:10;;;;;;;6.35;5.50;;;;;;;;;;5035725;28;20049;-81
2022/09/06 09:29:54;;;;;;;6.15;5.38;;;;;;;;;;5053699;28;20065;-81
2022/09/06 09:32:30;;;;;;;9.45;5.68;;;;;;;;;;5037595;28;20044;-82
2022/09/06 09:35:14;;;;;;;6.63;4.18;;;;;;;;;;5053823;28;20051;-81
2022/09/06 09:37:40;;;;;;;5.97;4.38;;;;;;;;;;5054374;28;20487;-81
2022/09/06 09:40:13;;;;;;;4.00;3.08;;;;;;;;;;5053949;28;20076;-83
2022/09/06 09:42:39;;;;;;;4.00;3.00;;;;;;;;;;5053735;28;20049;-83
2022/09/06 09:45:20;;;;;;;4.32;3.20;;;;;;;;;;5055324;28;20044;-84
2022/09/06 09:47:47;;;;;;;6.90;3.50;;;;;;;;;;5053658;28;20074;-82
2022/09/06 09:50:27;;;;;;;4.70;3.30;;;;;;;;;;5053567;28;20044;-82
2022/09/06 09:52:53;;;;;;;6.75;3.20;;;;;;;;;;5053598;28;20363;-82
2022/09/06 09:55:27;;;;;;;5.25;3.80;;;;;;;;;;5053170;28;20095;-82
2022/09/06 09:57:54;;;;;;;6.57;4.15;;;;;;;;;;5053320;28;20041;-82
2022/09/06 10:00:42;;;;;;;6.22;4.47;;;;;;;;;;5053761;28;20089;-82
2022/09/06 10:03:19;;;;;;;5.68;4.10;;;;;;;;;;5053490;28;20045;-82
2022/09/06 10:05:56;;;;;;;8.40;4.28;;;;;;;;;;5040377;28;20118;-82
2022/09/06 10:08:24;;;;;;;5.95;3.50;;;;;;;;;;5053639;28;20052;-82
2022/09/06 10:10:50;;;;;;;6.25;3.30;;;;;;;;;;5053285;28;20044;-82
2022/09/06 10:13:16;;;;;;;5.60;3.38;;;;;;;;;;5053513;28;20041;-81
2022/09/06 10:15:42;;;;;;;7.07;4.00;;;;;;;;;;5052827;28;20175;-82
2022/09/06 10:18:31;;;;;;;5.10;3.30;;;;;;;;;;5053389;28;20190;-82
2022/09/06 10:20:57;;;;;;;4.80;3.35;;;;;;;;;;5036396;28;20039;-82
2022/09/06 10:23:23;;;;;;;5.40;4.07;;;;;;;;;;5053261;28;20041;-82
2022/09/06 10:25:59;;;;;;;4.75;3.10;;;;;;;;;;5052597;28;20110;-81
2022/09/06 10:28:28;;;;;;;3.78;2.63;;;;;;;;;;5053156;28;20076;-81
2022/09/06 10:30:57;;;;;;;4.28;3.45;;;;;;;;;;5053081;28;20055;-81
2022/09/06 10:33:46;;;;;;;7.32;3.90;;;;;;;;;;5039504;28;20036;-81
2022/09/06 10:36:13;;;;;;;7.70;3.78;;;;;;;;;;5069392;28;20041;-81
2022/09/06 10:38:59;;;;;;;6.38;3.92;;;;;;;;;;5052635;28;20045;-81
2022/09/06 10:41:44;;;;;;;5.32;3.63;;;;;;;;;;5053239;28;20522;-81
2022/09/06 10:44:13;;;;;;;6.35;3.90;;;;;;;;;;5053136;28;20044;-81
2022/09/06 10:46:43;;;;;;;6.90;4.13;;;;;;;;;;5053025;28;20485;-81
2022/09/06 10:49:13;;;;;;;8.75;4.28;;;;;;;;;;5036149;28;20516;-81
2022/09/06 10:51:44;;;;;;;7.63;3.72;;;;;;;;;;5052847;28;20044;-81
2022/09/06 10:54:14;;;;;;;5.75;3.55;;;;;;;;;;5052679;28;20043;-81
2022/09/06 10:56:48;;;;;;;6.18;4.18;;;;;;;;;;5052237;28;20103;-81
2022/09/06 10:59:23;;;;;;;7.53;4.05;;;;;;;;;;5052689;28;20041;-81
2022/09/06 11:01:55;;;;;;;5.57;3.70;;;;;;;;;;5052257;28;20049;-81
2022/09/06 11:04:27;;;;;;;5.03;4.20;;;;;;;;;;5052438;28;20137;-80
2022/09/06 11:06:57;;;;;;;6.15;5.32;;;;;;;;;;5052241;28;20072;-81
2022/09/06 11:09:27;;;;;;;5.57;4.70;;;;;;;;;;5035745;28;20087;-80
2022/09/06 11:11:56;;;;;;;8.52;4.40;;;;;;;;;;5051916;28;20433;-80
2022/09/06 11:14:23;;;;;;;7.20;4.40;;;;;;;;;;5052442;28;20037;-81
2022/09/06 11:17:15;;;;;;;6.80;4.45;;;;;;;;;;5051855;28;20041;-80
2022/09/06 11:19:58;;;;;;;7.05;4.57;;;;;;;;;;5041686;28;20067;-80
2022/09/06 11:22:40;;;;;;;6.50;4.35;;;;;;;;;;5051485;28;20045;-80
2022/09/06 11:25:13;;;;;;;5.25;3.70;;;;;;;;;;5051598;28;20087;-80
2022/09/06 11:27:40;;;;;;;8.65;4.18;;;;;;;;;;5051468;28;20037;-80
2022/09/06 11:30:06;;;;;;;3.85;2.78;;;;;;;;;;5034787;28;20041;-80
2022/09/06 11:32:36;;;;;;;5.85;4.30;;;;;;;;;;5051850;28;20037;-80
2022/09/06 11:35:06;;;;;;;5.60;4.22;;;;;;;;;;5052124;28;20512;-80
2022/09/06 11:37:34;;;;;;;6.05;4.50;;;;;;;;;;5052116;28;20040;-80
2022/09/06 11:40:12;;;;;;;5.35;2.83;;;;;;;;;;5034617;28;20168;-80
2022/09/06 11:42:39;;;;;;;6.55;2.35;;;;;;;;;;5035330;28;20153;-80
2022/09/06 11:45:05;;;;;;;5.47;2.72;;;;;;;;;;5051351;28;20037;-80
2022/09/06 11:47:42;;;;;;;4.38;2.25;;;;;;;;;;5051831;28;20040;-80
2022/09/06 11:50:20;;;;;;;8.63;2.50;;;;;;;;;;5050276;28;20036;-80
2022/09/06 11:52:56;;;;;;;3.22;2.15;;;;;;;;;;5051657;28;20036;-80
2022/09/06 11:55:24;;;;;;;5.78;2.05;;;;;;;;;;5034634;28;20057;-80
2022/09/06 11:57:55;;;;;;;3.25;2.00;;;;;;;;;;5051216;28;20045;-80
2022/09/06 12:00:23;;;;;;;7.15;2.28;;;;;;;;;;5051346;28;20051;-80
2022/09/06 12:02:49;;;;;;;5.88;2.20;;;;;;;;;;5051680;28;20489;-80
2022/09/06 12:05:15;;;;;;;5.72;2.17;;;;;;;;;;5034329;28;20059;-80
2022/09/06 12:08:00;;;;;;;3.83;2.20;;;;;;;;;;5051719;28;20493;-80
2022/09/06 12:10:29;;;;;;;5.78;2.53;;;;;;;;;;5034368;28;20037;-80
2022/09/06 12:12:55;;;;;;;3.80;1.90;;;;;;;;;;5050745;28;20056;-80
2022/09/06 12:15:29;;;;;;;11.98;2.78;;;;;;;;;;5051159;28;20045;-80
2022/09/06 12:17:56;;;;;;;2.53;1.80;;;;;;;;;;5052161;28;20047;-80
2022/09/06 12:20:41;;;;;;;3.25;2.00;;;;;;;;;;5050974;28;20049;-80
2022/09/06 12:23:07;;;;;;;4.05;1.77;;;;;;;;;;5051286;28;20397;-80
2022/09/06 12:25:33;;;;;;;4.45;1.70;;;;;;;;;;5050956;28;20075;-80
2022/09/06 12:28:03;;;;;;;6.93;2.13;;;;;;;;;;5050543;28;20033;-80
2022/09/06 12:30:37;;;;;;;4.90;1.85;;;;;;;;;;5050848;28;20041;-80
2022/09/06 12:33:25;;;;;;;2.72;1.60;;;;;;;;;;5050711;28;20118;-80
2022/09/06 12:35:51;;;;;;;4.57;1.83;;;;;;;;;;5050984;28;20040;-80
2022/09/06 12:38:21;;;;;;;3.72;1.75;;;;;;;;;;5050542;28;20040;-80
2022/09/06 12:40:50;;;;;;;3.95;1.90;;;;;;;;;;5050738;28;20040;-80
2022/09/06 12:43:17;;;;;;;3.70;2.05;;;;;;;;;;5050423;28;20498;-80
2022/09/06 12:45:47;;;;;;;6.63;1.83;;;;;;;;;;5050716;28;20045;-80
2022/09/06 12:48:25;;;;;;;5.85;1.77;;;;;;;;;;5050291;28;20036;-80
2022/09/06 12:51:02;;;;;;;4.60;1.73;;;;;;;;;;5050626;28;20128;-80
2022/09/06 12:53:30;;;;;;;4.85;1.77;;;;;;;;;;5050842;28;20033;-80
2022/09/06 12:56:22;;;;;;;4.50;1.70;;;;;;;;;;5050603;28;20055;-80
2022/09/06 12:58:49;;;;;;;2.75;1.50;;;;;;;;;;5049363;28;20045;-80
2022/09/06 13:01:18;;;;;;;4.60;1.90;;;;;;;;;;5052352;28;20033;-80
2022/09/06 13:03:55;;;;;;;2.70;1.50;;;;;;;;;;5054683;28;20036;-80
2022/09/06 13:06:23;;;;;;;3.42;2.00;;;;;;;;;;5054417;28;20049;-80
2022/09/06 13:08:51;;;;;;;3.60;1.75;;;;;;;;;;5054587;28;20044;-80
2022/09/06 13:11:22;;;;;;;6.35;2.03;;;;;;;;;;5054315;28;20045;-80
2022/09/06 13:13:50;;;;;;;4.43;1.80;;;;;;;;;;5054580;28;20033;-80
2022/09/06 13:16:23;;;;;;;6.38;2.10;;;;;;;;;;5053906;28;20037;-80
2022/09/06 13:18:49;;;;;;;5.07;2.00;;;;;;;;;;5054569;28;20123;-80
2022/09/06 13:21:24;;;;;;;9.75;2.70;;;;;;;;;;5054099;28;20411;-80
2022/09/06 13:23:51;;;;;;;6.63;2.03;;;;;;;;;;5054639;28;20083;-80
2022/09/06 13:26:33;;;;;;;5.03;1.88;;;;;;;;;;5054030;28;20052;-80
2022/09/06 13:29:10;;;;;;;4.90;1.90;;;;;;;;;;5054120;28;20123;-80
2022/09/06 13:31:36;;;;;;;5.32;2.03;;;;;;;;;;5053808;28;20060;-80
2022/09/06 13:34:02;;;;;;;4.82;1.90;;;;;;;;;;5054182;28;20079;-80
2022/09/06 13:36:29;;;;;;;4.90;1.92;;;;;;;;;;5053753;28;20033;-80
2022/09/06 13:38:56;;;;;;;5.78;1.90;;;;;;;;;;5037520;28;20072;-80
2022/09/06 13:41:25;;;;;;;6.22;2.35;;;;;;;;;;5053707;28;20073;-80
2022/09/06 13:44:16;;;;;;;4.53;2.03;;;;;;;;;;5037302;28;20128;-80
2022/09/06 13:46:43;;;;;;;5.38;2.50;;;;;;;;;;5053821;28;20367;-80
2022/09/06 13:49:09;;;;;;;5.63;2.45;;;;;;;;;;5037204;28;20485;-81
2022/09/06 13:51:37;;;;;;;5.25;2.00;;;;;;;;;;5037028;28;20079;-80
2022/09/06 13:54:04;;;;;;;4.57;2.20;;;;;;;;;;5053973;28;20116;-80
2022/09/06 13:56:30;;;;;;;5.43;3.00;;;;;;;;;;5053141;28;20135;-80
2022/09/06 13:58:56;;;;;;;3.45;2.03;;;;;;;;;;5037407;28;20049;-80
2022/09/06 14:01:22;;;;;;;3.28;1.95;;;;;;;;;;5053393;28;20128;-80
2022/09/06 14:03:49;;;;;;;4.00;2.00;;;;;;;;;;5037135;28;20041;-80
2022/09/06 14:06:15;;;;;;;5.22;2.40;;;;;;;;;;5053119;28;20045;-80
2022/09/06 14:08:41;;;;;;;4.38;2.38;;;;;;;;;;5053440;28;20047;-80
2022/09/06 14:11:07;;;;;;;6.80;2.38;;;;;;;;;;5053433;28;20052;-80
2022/09/06 14:13:34;;;;;;;6.13;3.10;;;;;;;;;;5036264;28;20114;-80
2022/09/06 14:16:00;;;;;;;6.13;2.63;;;;;;;;;;5053260;28;20048;-80
2022/09/06 14:18:26;;;;;;;8.40;2.38;;;;;;;;;;5036778;28;20045;-80
2022/09/06 14:20:53;;;;;;;5.70;2.70;;;;;;;;;;5036922;28;20032;-80
2022/09/06 14:23:19;;;;;;;6.38;2.55;;;;;;;;;;5052913;28;20045;-80
2022/09/06 14:25:45;;;;;;;4.68;2.50;;;;;;;;;;5036604;28;20049;-80
2022/09/06 14:28:12;;;;;;;5.82;2.60;;;;;;;;;;5053884;28;20049;-80
2022/09/06 14:30:38;;;;;;;6.60;2.60;;;;;;;;;;5019879;28;20547;-80
2022/09/06 14:33:04;;;;;;;7.20;2.60;;;;;;;;;;5053425;28;20465;-80
2022/09/06 14:35:31;;;;;;;7.35;3.00;;;;;;;;;;5052837;28;20037;-80
2022/09/06 14:37:57;;;;;;;8.02;2.80;;;;;;;;;;5053081;28;20095;-80
2022/09/06 14:40:24;;;;;;;5.35;2.90;;;;;;;;;;5054140;28;20089;-80
2022/09/06 14:42:50;;;;;;;6.28;2.85;;;;;;;;;;5053072;28;20080;-80
2022/09/06 14:45:16;;;;;;;8.25;2.75;;;;;;;;;;5052780;28;20040;-80
2022/09/06 14:47:42;;;;;;;6.40;2.90;;;;;;;;;;5053310;28;20386;-80